Time;durP1;ratioP1;P1;durP2;ratioP2;P2;SDS_P1;SDS_P2;PMS_P1;PMS_P2;Temp;Humidity;BMP_temperature;BMP_pressure;BME280_temperature;BME280_humidity;BME280_pressure;Samples;Min_cycle;Max_cycle;Signal;HPM_P1;HPM_P2
2023/09/03 00:01:19;;;;;;;6.57;2.47;;;17.10;90.90;;;;;;5034773;28;20477;-78
2023/09/03 00:03:45;;;;;;;4.88;2.13;;;17.00;90.90;;;;;;5035022;28;20026;-77
2023/09/03 00:06:10;;;;;;;5.13;2.75;;;17.00;90.90;;;;;;5035027;28;20104;-77
2023/09/03 00:08:36;;;;;;;7.47;2.97;;;16.90;90.90;;;;;;5034899;28;20033;-78
2023/09/03 00:11:01;;;;;;;3.42;2.10;;;16.90;91.00;;;;;;5034685;28;20396;-78
2023/09/03 00:13:27;;;;;;;5.10;2.55;;;16.90;91.00;;;;;;5035019;28;20029;-78
2023/09/03 00:15:52;;;;;;;6.75;3.25;;;16.90;91.00;;;;;;5034816;28;20021;-78
2023/09/03 00:18:18;;;;;;;4.65;2.83;;;16.80;91.10;;;;;;5034403;28;20083;-78
2023/09/03 00:20:57;;;;;;;4.82;2.72;;;16.90;91.10;;;;;;5034545;28;20025;-78
2023/09/03 00:23:22;;;;;;;5.85;2.58;;;16.70;91.20;;;;;;5034437;28;20077;-77
2023/09/03 00:25:48;;;;;;;7.53;2.40;;;16.80;91.30;;;;;;5034805;28;20067;-77
2023/09/03 00:28:14;;;;;;;6.63;2.58;;;16.70;91.40;;;;;;5034556;28;20087;-78
2023/09/03 00:30:39;;;;;;;5.53;2.38;;;16.70;91.50;;;;;;5034322;28;20026;-78
2023/09/03 00:33:05;;;;;;;8.95;3.08;;;16.60;91.60;;;;;;5034229;28;20553;-78
2023/09/03 00:35:31;;;;;;;4.03;2.70;;;16.60;91.70;;;;;;5034342;28;20103;-78
2023/09/03 00:37:57;;;;;;;4.60;2.63;;;16.60;91.70;;;;;;5034584;28;20451;-78
2023/09/03 00:40:22;;;;;;;5.32;2.85;;;16.60;91.70;;;;;;5033945;28;20029;-78
2023/09/03 00:42:48;;;;;;;8.63;3.00;;;16.50;91.70;;;;;;5034237;28;20041;-78
2023/09/03 00:45:13;;;;;;;4.68;2.72;;;16.50;91.70;;;;;;5034404;28;20026;-78
2023/09/03 00:47:39;;;;;;;7.57;3.33;;;16.40;91.70;;;;;;5034007;28;20033;-78
2023/09/03 00:50:05;;;;;;;5.07;3.20;;;16.40;91.70;;;;;;5034010;28;20066;-77
2023/09/03 00:52:31;;;;;;;7.38;3.83;;;16.40;91.80;;;;;;5034241;28;20112;-78
2023/09/03 00:54:57;;;;;;;5.85;3.25;;;16.30;91.80;;;;;;5033353;28;20449;-77
2023/09/03 00:57:23;;;;;;;6.75;3.08;;;16.40;91.90;;;;;;5033394;28;20030;-77
2023/09/03 00:59:51;;;;;;;5.75;2.78;;;16.30;91.90;;;;;;5033829;28;20391;-77
2023/09/03 01:02:19;;;;;;;5.70;3.88;;;16.30;92.00;;;;;;5033436;28;20518;-78
2023/09/03 01:04:45;;;;;;;9.45;4.13;;;16.30;92.10;;;;;;5033762;28;20033;-78
2023/09/03 01:07:13;;;;;;;4.50;2.72;;;16.20;92.20;;;;;;5033642;28;20029;-78
2023/09/03 01:09:40;;;;;;;5.10;3.10;;;16.20;92.20;;;;;;5033401;28;20029;-78
2023/09/03 01:12:24;;;;;;;5.72;3.30;;;16.20;92.30;;;;;;5033409;28;20506;-77
2023/09/03 01:14:57;;;;;;;6.75;3.15;;;16.20;92.40;;;;;;5033308;28;20060;-78
2023/09/03 01:17:38;;;;;;;6.38;3.70;;;16.20;92.40;;;;;;5033425;28;20021;-77
2023/09/03 01:20:12;;;;;;;5.70;3.45;;;16.20;92.50;;;;;;5033550;28;20055;-79
2023/09/03 01:22:56;;;;;;;5.68;2.92;;;16.20;92.60;;;;;;5033012;28;20653;-78
2023/09/03 01:25:28;;;;;;;6.80;3.53;;;16.20;92.60;;;;;;5033237;28;20113;-79
2023/09/03 01:28:25;;;;;;;7.07;3.55;;;16.10;92.70;;;;;;5033510;28;20536;-77
2023/09/03 01:31:02;;;;;;;6.22;3.15;;;16.10;92.70;;;;;;5032959;28;20064;-78
2023/09/03 01:33:31;;;;;;;6.57;3.83;;;16.20;92.80;;;;;;5032852;28;20475;-77
2023/09/03 01:35:58;;;;;;;8.25;3.78;;;16.10;92.90;;;;;;5033032;28;20025;-78
2023/09/03 01:38:25;;;;;;;7.03;3.70;;;16.10;93.00;;;;;;5033088;28;20024;-78
2023/09/03 01:40:52;;;;;;;5.95;3.03;;;16.10;93.10;;;;;;5033055;28;20024;-78
2023/09/03 01:43:17;;;;;;;5.85;3.22;;;16.00;93.20;;;;;;5032786;28;20029;-77
2023/09/03 01:46:06;;;;;;;9.63;4.22;;;16.00;93.30;;;;;;5032742;28;20040;-77
2023/09/03 01:48:46;;;;;;;7.00;3.75;;;16.10;93.50;;;;;;5033249;28;20075;-77
2023/09/03 01:51:33;;;;;;;5.97;3.80;;;16.00;93.40;;;;;;5031715;28;20049;-78
2023/09/03 01:54:04;;;;;;;5.90;3.88;;;16.00;93.50;;;;;;5032868;28;20037;-78
2023/09/03 01:56:37;;;;;;;5.90;3.60;;;15.90;93.50;;;;;;5032870;28;20033;-78
2023/09/03 01:59:19;;;;;;;7.55;4.30;;;15.90;93.60;;;;;;5032959;28;20033;-78
2023/09/03 02:01:46;;;;;;;7.43;4.80;;;15.90;93.70;;;;;;5031457;28;20109;-78
2023/09/03 02:04:12;;;;;;;7.85;4.03;;;15.80;93.70;;;;;;5032653;28;20029;-78
2023/09/03 02:06:37;;;;;;;7.28;4.47;;;15.90;93.80;;;;;;5031441;28;20035;-79
2023/09/03 02:09:03;;;;;;;6.53;4.20;;;15.80;93.90;;;;;;5032604;28;20026;-79
2023/09/03 02:11:29;;;;;;;6.25;3.85;;;15.80;94.10;;;;;;5032150;28;20037;-78
2023/09/03 02:13:54;;;;;;;6.82;4.00;;;15.80;94.20;;;;;;5032258;28;20033;-78
2023/09/03 02:16:20;;;;;;;6.68;3.85;;;15.70;94.30;;;;;;5032352;28;20025;-79
2023/09/03 02:18:45;;;;;;;7.40;4.45;;;15.70;94.40;;;;;;5030991;28;20120;-79
2023/09/03 02:21:11;;;;;;;7.32;4.00;;;15.70;94.60;;;;;;5032228;28;20061;-79
2023/09/03 02:23:37;;;;;;;9.48;4.28;;;15.70;94.70;;;;;;5030896;28;20380;-79
2023/09/03 02:26:03;;;;;;;7.82;4.57;;;15.70;94.80;;;;;;5031082;28;20438;-79
2023/09/03 02:28:29;;;;;;;6.40;3.70;;;15.70;94.90;;;;;;5032599;28;20032;-79
2023/09/03 02:30:54;;;;;;;8.15;4.65;;;15.70;95.00;;;;;;5032193;28;20469;-79
2023/09/03 02:33:20;;;;;;;6.47;4.18;;;15.70;95.10;;;;;;5031953;28;20048;-78
2023/09/03 02:35:46;;;;;;;7.53;3.88;;;15.60;95.10;;;;;;5032100;28;20030;-78
2023/09/03 02:38:11;;;;;;;7.28;4.70;;;15.70;95.20;;;;;;5032215;28;20879;-78
2023/09/03 02:40:37;;;;;;;8.57;5.22;;;15.70;95.30;;;;;;5032174;28;20076;-78
2023/09/03 02:43:04;;;;;;;6.78;4.30;;;15.60;95.40;;;;;;5031784;28;20029;-79
2023/09/03 02:45:30;;;;;;;6.32;4.07;;;15.60;95.50;;;;;;5032090;28;20108;-79
2023/09/03 02:47:56;;;;;;;8.50;5.07;;;15.60;95.60;;;;;;5030912;28;20080;-79
2023/09/03 02:50:21;;;;;;;7.00;4.07;;;15.60;95.70;;;;;;5031792;28;20025;-79
2023/09/03 02:52:48;;;;;;;10.15;4.00;;;15.60;95.90;;;;;;5031810;28;20048;-79
2023/09/03 02:55:14;;;;;;;8.73;4.65;;;15.60;96.00;;;;;;5031622;28;20083;-79
2023/09/03 02:57:40;;;;;;;10.57;4.68;;;15.60;96.10;;;;;;5031658;28;20051;-79
2023/09/03 03:00:06;;;;;;;8.43;4.90;;;15.60;96.20;;;;;;5030545;28;20103;-79
2023/09/03 03:02:32;;;;;;;7.57;4.28;;;15.60;96.30;;;;;;5031673;28;20028;-79
2023/09/03 03:04:58;;;;;;;7.45;4.03;;;15.60;96.40;;;;;;5031696;28;20032;-79
2023/09/03 03:07:25;;;;;;;8.88;4.20;;;15.60;96.60;;;;;;5031589;28;20025;-79
2023/09/03 03:09:51;;;;;;;7.15;4.30;;;15.60;96.60;;;;;;5031552;28;20100;-79
2023/09/03 03:12:16;;;;;;;6.85;4.10;;;15.60;96.70;;;;;;5031556;28;20128;-80
2023/09/03 03:14:42;;;;;;;6.40;3.92;;;15.50;96.70;;;;;;5031489;28;20026;-78
2023/09/03 03:17:07;;;;;;;10.68;4.40;;;15.50;96.70;;;;;;5030147;28;20403;-78
2023/09/03 03:19:33;;;;;;;8.98;4.47;;;15.50;96.90;;;;;;5031479;28;20503;-79
2023/09/03 03:21:59;;;;;;;8.05;4.55;;;15.50;96.90;;;;;;5031288;28;20439;-79
2023/09/03 03:24:24;;;;;;;7.57;4.13;;;15.50;96.90;;;;;;5031682;28;20032;-79
2023/09/03 03:26:50;;;;;;;7.80;4.45;;;15.50;97.00;;;;;;5031813;28;20101;-79
2023/09/03 03:29:15;;;;;;;9.35;4.85;;;15.50;97.10;;;;;;5031568;28;20519;-79
2023/09/03 03:31:45;;;;;;;8.35;4.28;;;15.50;97.10;;;;;;5031706;28;20037;-79
2023/09/03 03:34:11;;;;;;;8.13;4.57;;;15.40;97.20;;;;;;5031439;28;20040;-79
2023/09/03 03:36:36;;;;;;;8.27;4.72;;;15.30;97.20;;;;;;5031677;28;20021;-79
2023/09/03 03:39:02;;;;;;;8.30;4.85;;;15.40;97.20;;;;;;5031415;28;20053;-79
2023/09/03 03:41:27;;;;;;;8.43;5.55;;;15.40;97.30;;;;;;5031412;28;20104;-79
2023/09/03 03:43:53;;;;;;;13.15;5.40;;;15.30;97.40;;;;;;5031508;28;20056;-79
2023/09/03 03:46:20;;;;;;;7.75;5.18;;;15.30;97.40;;;;;;5031225;28;20079;-78
2023/09/03 03:48:47;;;;;;;9.82;6.25;;;15.30;97.50;;;;;;5031144;28;20033;-78
2023/09/03 03:51:13;;;;;;;9.35;5.18;;;15.20;97.50;;;;;;5030884;28;20021;-78
2023/09/03 03:53:39;;;;;;;7.55;5.15;;;15.20;97.60;;;;;;5031154;28;20040;-78
2023/09/03 03:56:07;;;;;;;9.57;5.93;;;15.30;97.70;;;;;;5031260;28;20026;-78
2023/09/03 03:58:34;;;;;;;10.40;6.53;;;15.20;97.80;;;;;;5031311;28;20496;-78
2023/09/03 04:01:01;;;;;;;11.05;6.50;;;15.30;97.90;;;;;;5031453;28;20116;-78
2023/09/03 04:03:28;;;;;;;9.98;6.32;;;15.10;98.00;;;;;;5030911;28;20021;-78
2023/09/03 04:05:56;;;;;;;10.20;6.32;;;15.10;98.10;;;;;;5031037;28;20087;-78
2023/09/03 04:08:22;;;;;;;10.05;5.65;;;15.10;98.20;;;;;;5030951;28;20392;-78
2023/09/03 04:10:58;;;;;;;9.38;6.03;;;15.10;98.30;;;;;;5030899;28;20022;-78
2023/09/03 04:13:24;;;;;;;8.82;6.00;;;15.10;98.40;;;;;;5030433;28;20041;-78
2023/09/03 04:15:50;;;;;;;8.55;5.55;;;15.10;98.50;;;;;;5030764;28;20432;-78
2023/09/03 04:18:16;;;;;;;10.35;6.25;;;15.10;98.60;;;;;;5030894;28;20067;-78
2023/09/03 04:20:41;;;;;;;9.45;5.78;;;15.00;98.70;;;;;;5029514;28;20630;-77
2023/09/03 04:23:07;;;;;;;8.35;5.20;;;15.00;98.80;;;;;;5030817;28;20412;-78
2023/09/03 04:25:32;;;;;;;9.80;6.10;;;15.00;98.90;;;;;;5030903;28;20033;-78
2023/09/03 04:27:58;;;;;;;9.45;5.50;;;15.00;99.00;;;;;;5030855;28;20472;-78
2023/09/03 04:30:24;;;;;;;11.18;5.88;;;15.10;99.10;;;;;;5033084;28;20037;-78
2023/09/03 04:32:50;;;;;;;9.27;5.47;;;15.00;99.10;;;;;;5034263;28;20048;-78
2023/09/03 04:35:15;;;;;;;9.07;5.55;;;15.00;99.20;;;;;;5034381;28;20100;-77
2023/09/03 04:37:41;;;;;;;7.78;5.20;;;15.00;99.20;;;;;;5034158;28;20021;-77
2023/09/03 04:40:08;;;;;;;13.05;5.45;;;15.00;99.20;;;;;;5034274;28;20052;-78
2023/09/03 04:42:34;;;;;;;10.50;6.22;;;15.00;99.30;;;;;;5034035;28;20673;-78
2023/09/03 04:45:00;;;;;;;8.40;5.55;;;15.00;99.40;;;;;;5034050;28;20034;-78
2023/09/03 04:47:25;;;;;;;9.95;5.32;;;15.00;99.50;;;;;;5034193;28;20427;-78
2023/09/03 04:49:51;;;;;;;8.27;5.80;;;15.00;99.50;;;;;;5034119;28;20065;-78
2023/09/03 04:52:16;;;;;;;9.80;6.07;;;15.00;99.50;;;;;;5034292;28;20037;-78
2023/09/03 04:54:43;;;;;;;8.90;5.85;;;14.90;99.60;;;;;;5033887;28;20033;-78
2023/09/03 04:57:09;;;;;;;9.27;6.32;;;15.00;99.70;;;;;;5033637;28;20498;-77
2023/09/03 04:59:34;;;;;;;9.85;5.80;;;15.00;99.70;;;;;;5033783;28;20026;-78
2023/09/03 05:02:00;;;;;;;10.65;6.15;;;15.00;99.80;;;;;;5033683;28;20084;-78
2023/09/03 05:04:25;;;;;;;8.50;5.68;;;14.90;99.80;;;;;;5033680;28;20029;-78
2023/09/03 05:06:51;;;;;;;9.75;6.05;;;14.90;99.90;;;;;;5033938;28;20492;-77
2023/09/03 05:09:17;;;;;;;10.65;5.32;;;14.90;99.90;;;;;;5033738;28;20029;-77
2023/09/03 05:11:42;;;;;;;8.88;5.68;;;15.00;99.90;;;;;;5033672;28;20057;-78
2023/09/03 05:14:08;;;;;;;13.10;6.72;;;14.90;99.90;;;;;;5034792;28;20026;-78
2023/09/03 05:16:34;;;;;;;9.07;6.00;;;15.00;99.90;;;;;;5036171;28;20022;-78
2023/09/03 05:19:04;;;;;;;11.65;6.03;;;15.00;99.90;;;;;;5018193;28;20034;-78
2023/09/03 05:21:31;;;;;;;9.85;6.43;;;15.00;99.90;;;;;;5013285;28;20104;-77
2023/09/03 05:23:56;;;;;;;11.70;6.57;;;15.00;99.90;;;;;;5013894;28;20029;-77
2023/09/03 05:26:22;;;;;;;10.30;6.38;;;15.00;99.90;;;;;;5017908;28;20665;-77
2023/09/03 05:28:47;;;;;;;9.70;6.38;;;15.10;99.90;;;;;;5014756;28;20532;-79
2023/09/03 05:31:13;;;;;;;11.77;6.80;;;15.00;99.90;;;;;;5020726;28;20026;-78
2023/09/03 05:33:39;;;;;;;8.60;5.80;;;15.10;99.90;;;;;;5033198;28;20385;-78
2023/09/03 05:36:05;;;;;;;9.48;6.07;;;15.10;99.90;;;;;;5028373;28;20108;-78
2023/09/03 05:38:31;;;;;;;10.70;6.18;;;15.10;99.90;;;;;;5032779;28;20466;-79
2023/09/03 05:40:59;;;;;;;8.13;5.78;;;15.10;99.90;;;;;;5032537;28;20029;-78
2023/09/03 05:43:26;;;;;;;9.48;6.45;;;15.10;99.90;;;;;;5013756;28;20036;-76
2023/09/03 05:45:52;;;;;;;7.40;5.53;;;15.00;99.90;;;;;;5032952;28;20071;-78
2023/09/03 05:48:17;;;;;;;11.07;5.90;;;15.10;99.90;;;;;;5032388;28;20025;-79
2023/09/03 05:50:43;;;;;;;9.88;5.75;;;15.10;99.90;;;;;;5031375;28;20025;-79
2023/09/03 05:53:08;;;;;;;10.85;6.32;;;15.10;99.90;;;;;;5032741;28;20094;-79
2023/09/03 05:55:39;;;;;;;9.55;6.25;;;15.20;99.90;;;;;;5032547;28;20022;-78
2023/09/03 05:58:05;;;;;;;12.20;6.03;;;15.20;99.90;;;;;;5032610;28;20068;-77
2023/09/03 06:00:31;;;;;;;7.90;5.45;;;15.10;99.90;;;;;;5032835;28;20052;-78
2023/09/03 06:02:57;;;;;;;9.05;5.47;;;15.20;99.90;;;;;;5031597;28;20107;-78
2023/09/03 06:05:27;;;;;;;9.95;5.97;;;15.20;99.90;;;;;;5032640;28;20053;-78
2023/09/03 06:07:52;;;;;;;8.63;5.57;;;15.20;99.90;;;;;;5032613;28;20151;-78
2023/09/03 06:10:18;;;;;;;9.73;6.05;;;15.20;99.90;;;;;;5032388;28;20112;-79
2023/09/03 06:12:43;;;;;;;13.65;6.97;;;15.30;99.90;;;;;;5032313;28;20052;-79
2023/09/03 06:15:09;;;;;;;11.00;5.97;;;15.30;99.90;;;;;;5032752;28;20026;-80
2023/09/03 06:17:35;;;;;;;10.48;5.97;;;15.40;99.90;;;;;;5032558;28;20022;-81
2023/09/03 06:20:00;;;;;;;9.57;5.65;;;15.40;99.90;;;;;;5032616;28;20025;-80
2023/09/03 06:22:26;;;;;;;7.93;5.32;;;15.40;99.90;;;;;;5032275;28;20057;-81
2023/09/03 06:24:51;;;;;;;9.77;6.00;;;15.50;99.90;;;;;;5032489;28;20029;-80
2023/09/03 06:27:17;;;;;;;9.50;6.90;;;15.60;99.90;;;;;;5031229;28;20050;-80
2023/09/03 06:29:43;;;;;;;10.40;6.18;;;15.60;99.90;;;;;;5032424;28;20029;-80
2023/09/03 06:32:08;;;;;;;11.10;7.28;;;15.70;99.90;;;;;;5032059;28;20084;-80
2023/09/03 06:34:34;;;;;;;11.02;7.03;;;15.70;99.90;;;;;;5032190;28;20045;-81
2023/09/03 06:36:59;;;;;;;11.60;6.93;;;15.80;99.90;;;;;;5031916;28;20029;-80
2023/09/03 06:39:26;;;;;;;10.85;7.22;;;15.80;99.90;;;;;;5020333;28;20468;-80
2023/09/03 06:41:52;;;;;;;10.10;6.38;;;15.90;99.90;;;;;;5022290;28;20048;-80
2023/09/03 06:44:17;;;;;;;12.20;7.50;;;15.90;99.90;;;;;;5021843;28;20064;-81
2023/09/03 06:46:43;;;;;;;11.10;7.28;;;16.00;99.90;;;;;;5020491;28;20762;-81
2023/09/03 06:49:08;;;;;;;12.38;7.78;;;16.10;99.90;;;;;;5022854;28;20492;-81
2023/09/03 06:51:34;;;;;;;11.55;7.82;;;16.20;99.90;;;;;;5019581;28;20025;-80
2023/09/03 06:53:59;;;;;;;10.73;7.38;;;16.20;99.90;;;;;;5021818;28;20025;-81
2023/09/03 06:56:25;;;;;;;10.68;7.63;;;16.30;99.90;;;;;;5025129;28;20028;-81
2023/09/03 06:58:50;;;;;;;9.07;6.95;;;16.30;99.90;;;;;;5031580;28;20044;-81
2023/09/03 07:01:17;;;;;;;15.32;8.98;;;16.40;99.90;;;;;;5029982;28;20476;-81
2023/09/03 07:03:43;;;;;;;11.95;7.13;;;16.40;99.90;;;;;;5028746;28;20025;-81
2023/09/03 07:06:08;;;;;;;11.27;7.68;;;16.50;99.90;;;;;;5028073;28;20036;-81
2023/09/03 07:08:34;;;;;;;12.27;7.65;;;16.70;99.90;;;;;;5021482;28;20030;-81
2023/09/03 07:11:00;;;;;;;11.40;7.88;;;16.70;99.90;;;;;;5020236;28;20112;-80
2023/09/03 07:13:25;;;;;;;10.02;6.85;;;16.80;99.90;;;;;;5022305;28;20037;-81
2023/09/03 07:15:51;;;;;;;9.30;6.50;;;16.90;99.90;;;;;;5021131;28;20032;-80
2023/09/03 07:18:16;;;;;;;11.77;8.25;;;16.90;99.90;;;;;;5023609;28;20036;-81
2023/09/03 07:20:42;;;;;;;14.60;7.60;;;17.00;99.90;;;;;;5030691;28;20049;-80
2023/09/03 07:23:08;;;;;;;10.05;7.13;;;17.00;99.90;;;;;;5029966;28;20042;-80
2023/09/03 07:25:35;;;;;;;10.73;6.82;;;17.10;99.90;;;;;;5031060;28;20144;-81
2023/09/03 07:28:01;;;;;;;11.13;7.22;;;17.20;99.90;;;;;;5032150;28;20106;-81
2023/09/03 07:30:28;;;;;;;12.48;7.47;;;17.20;99.90;;;;;;5026480;28;20087;-82
2023/09/03 07:32:53;;;;;;;11.75;7.15;;;17.30;99.90;;;;;;5023197;28;20452;-81
2023/09/03 07:35:19;;;;;;;10.35;7.28;;;17.40;99.90;;;;;;5011557;28;20117;-81
2023/09/03 07:37:44;;;;;;;10.00;7.00;;;17.50;99.90;;;;;;5012405;28;20026;-80
2023/09/03 07:40:10;;;;;;;10.82;7.35;;;17.50;99.90;;;;;;5010229;28;20026;-81
2023/09/03 07:42:36;;;;;;;9.70;6.63;;;17.60;99.90;;;;;;5011402;28;20033;-81
2023/09/03 07:45:02;;;;;;;13.13;7.25;;;17.50;99.90;;;;;;5025170;28;20034;-81
2023/09/03 07:47:28;;;;;;;10.70;7.05;;;17.70;99.90;;;;;;5031056;28;20038;-81
2023/09/03 07:49:53;;;;;;;9.88;6.57;;;17.80;99.90;;;;;;5030553;28;20032;-80
2023/09/03 07:52:20;;;;;;;9.50;6.80;;;17.80;99.90;;;;;;5030661;28;20480;-80
2023/09/03 07:54:45;;;;;;;10.80;7.30;;;17.90;99.90;;;;;;5032085;28;20028;-81
2023/09/03 07:57:12;;;;;;;10.88;7.10;;;17.90;99.90;;;;;;5030920;28;20030;-81
2023/09/03 07:59:38;;;;;;;9.48;7.00;;;18.00;99.90;;;;;;5030334;28;20036;-81
2023/09/03 08:02:04;;;;;;;9.57;6.72;;;18.10;99.90;;;;;;5031738;28;20029;-80
2023/09/03 08:04:30;;;;;;;8.63;5.72;;;18.10;99.90;;;;;;5032567;28;20030;-80
2023/09/03 08:06:55;;;;;;;9.60;6.13;;;18.10;99.90;;;;;;5033759;28;20018;-80
2023/09/03 08:09:23;;;;;;;8.73;5.85;;;18.20;99.90;;;;;;5035495;28;20029;-80
2023/09/03 08:11:50;;;;;;;7.90;5.25;;;18.30;99.90;;;;;;5036486;28;20124;-80
2023/09/03 08:14:15;;;;;;;9.73;5.47;;;18.30;99.90;;;;;;5035391;28;20071;-81
2023/09/03 08:16:41;;;;;;;8.65;5.68;;;18.40;99.90;;;;;;5034731;28;20029;-80
2023/09/03 08:19:06;;;;;;;8.43;5.68;;;18.40;99.80;;;;;;5034129;28;20494;-80
2023/09/03 08:21:32;;;;;;;7.82;5.00;;;18.50;99.70;;;;;;5035230;28;20072;-80
2023/09/03 08:23:57;;;;;;;6.80;4.75;;;18.50;99.60;;;;;;5034989;28;20021;-80
2023/09/03 08:26:23;;;;;;;7.82;4.53;;;18.60;99.50;;;;;;5035220;28;20049;-80
2023/09/03 08:28:49;;;;;;;5.82;3.50;;;18.60;99.30;;;;;;5035016;28;20029;-80
2023/09/03 08:31:14;;;;;;;7.03;4.95;;;18.60;99.00;;;;;;5034534;28;20030;-81
2023/09/03 08:33:40;;;;;;;7.43;4.43;;;18.70;98.70;;;;;;5034833;28;20080;-80
2023/09/03 08:36:06;;;;;;;8.85;4.70;;;18.70;98.60;;;;;;5034654;28;20034;-80
2023/09/03 08:38:32;;;;;;;9.57;4.35;;;18.70;98.40;;;;;;5026895;28;20026;-80
2023/09/03 08:40:57;;;;;;;6.20;3.80;;;18.80;98.30;;;;;;5015666;28;20477;-80
2023/09/03 08:43:26;;;;;;;6.32;3.95;;;18.80;98.20;;;;;;5016037;28;20725;-80
2023/09/03 08:45:56;;;;;;;6.68;3.70;;;18.80;98.10;;;;;;5033775;28;20476;-80
2023/09/03 08:48:22;;;;;;;6.25;3.83;;;18.90;98.00;;;;;;5036134;28;20032;-80
2023/09/03 08:50:48;;;;;;;8.77;4.93;;;19.00;97.90;;;;;;5035227;28;20033;-81
2023/09/03 08:53:14;;;;;;;6.82;4.10;;;19.00;97.80;;;;;;5029218;28;20456;-81
2023/09/03 08:55:40;;;;;;;7.10;4.40;;;19.10;97.70;;;;;;5019214;28;20025;-81
2023/09/03 08:58:05;;;;;;;7.07;4.45;;;19.10;97.40;;;;;;5035957;28;20087;-81
2023/09/03 09:00:33;;;;;;;6.28;3.63;;;19.10;97.30;;;;;;5034410;28;20474;-81
2023/09/03 09:03:05;;;;;;;5.20;3.25;;;19.20;97.30;;;;;;5033175;28;20037;-81
2023/09/03 09:05:32;;;;;;;5.97;3.23;;;19.30;97.20;;;;;;5033661;28;20034;-82
2023/09/03 09:08:02;;;;;;;6.03;3.40;;;19.40;97.10;;;;;;5034121;28;20396;-81
2023/09/03 09:10:31;;;;;;;4.65;2.85;;;19.50;97.00;;;;;;5033452;28;20543;-81
2023/09/03 09:13:03;;;;;;;7.22;2.78;;;19.50;96.80;;;;;;5033188;28;20038;-81
2023/09/03 09:15:28;;;;;;;5.43;3.08;;;19.70;96.60;;;;;;5032042;28;20108;-81
2023/09/03 09:17:54;;;;;;;4.63;1.80;;;19.80;96.40;;;;;;5034419;28;20112;-81
2023/09/03 09:20:20;;;;;;;4.00;2.08;;;19.90;96.10;;;;;;5033081;28;20481;-81
2023/09/03 09:22:47;;;;;;;3.30;1.80;;;20.00;95.70;;;;;;5033933;28;20073;-81
2023/09/03 09:25:21;;;;;;;4.60;2.25;;;20.10;95.30;;;;;;5033843;28;20057;-81
2023/09/03 09:27:47;;;;;;;5.13;2.40;;;20.20;94.90;;;;;;5033353;28;20026;-81
2023/09/03 09:30:15;;;;;;;4.10;2.22;;;20.30;94.60;;;;;;5033415;28;20399;-81
2023/09/03 09:32:42;;;;;;;3.35;1.92;;;20.40;94.20;;;;;;5033288;28;20041;-81
2023/09/03 09:35:09;;;;;;;5.85;2.10;;;20.50;93.80;;;;;;5016637;28;20476;-81
2023/09/03 09:37:39;;;;;;;3.75;1.70;;;20.60;93.50;;;;;;5029964;28;20083;-81
2023/09/03 09:40:09;;;;;;;6.82;2.20;;;20.70;93.10;;;;;;5033219;28;20038;-81
2023/09/03 09:42:59;;;;;;;3.42;1.75;;;20.80;92.90;;;;;;5032955;28;20035;-82
2023/09/03 09:45:25;;;;;;;4.80;1.83;;;20.90;92.50;;;;;;5033163;28;20100;-81
2023/09/03 09:48:07;;;;;;;5.32;1.60;;;21.00;92.30;;;;;;5033137;28;20034;-82
2023/09/03 09:50:37;;;;;;;3.00;1.50;;;21.10;92.00;;;;;;5033496;28;20033;-81
2023/09/03 09:53:03;;;;;;;4.70;2.35;;;21.30;91.70;;;;;;5033041;28;20389;-81
2023/09/03 09:55:31;;;;;;;5.57;1.77;;;21.30;91.40;;;;;;5033229;28;20481;-82
2023/09/03 09:57:58;;;;;;;3.53;1.60;;;21.50;91.20;;;;;;5032912;28;20497;-82
2023/09/03 10:00:33;;;;;;;4.35;1.50;;;21.50;91.00;;;;;;5032667;28;20113;-82
2023/09/03 10:02:58;;;;;;;3.08;1.50;;;21.70;90.60;;;;;;5032762;28;20035;-83
2023/09/03 10:05:25;;;;;;;5.07;1.30;;;21.80;90.30;;;;;;5034607;28;20029;-82
2023/09/03 10:07:52;;;;;;;2.10;1.35;;;22.00;90.00;;;;;;5033408;28;20035;-81
2023/09/03 10:10:18;;;;;;;2.97;1.60;;;22.10;88.70;;;;;;5032938;28;20022;-82
2023/09/03 10:12:44;;;;;;;4.85;1.77;;;22.30;87.90;;;;;;5023055;28;20037;-82
2023/09/03 10:15:13;;;;;;;4.43;1.80;;;22.60;86.90;;;;;;5022909;28;20029;-82
2023/09/03 10:17:40;;;;;;;2.75;1.25;;;22.80;85.80;;;;;;5032383;28;20032;-81
2023/09/03 10:20:10;;;;;;;3.22;0.80;;;23.00;85.20;;;;;;5029594;28;20076;-81
2023/09/03 10:22:40;;;;;;;4.68;0.90;;;23.20;84.20;;;;;;5021827;28;20103;-82
2023/09/03 10:25:10;;;;;;;2.17;1.00;;;23.50;82.80;;;;;;5028477;28;20468;-82
2023/09/03 10:27:41;;;;;;;2.28;0.80;;;23.70;82.50;;;;;;5031581;28;20021;-81
2023/09/03 10:30:09;;;;;;;1.88;0.70;;;24.20;82.20;;;;;;5028093;28;20029;-80
2023/09/03 10:32:36;;;;;;;2.08;0.95;;;24.70;81.50;;;;;;5031737;28;20043;-82
2023/09/03 10:35:12;;;;;;;2.15;0.90;;;25.20;80.60;;;;;;5032419;28;20470;-82
2023/09/03 10:37:39;;;;;;;1.80;0.70;;;25.70;78.30;;;;;;5031716;28;20031;-83
2023/09/03 10:40:22;;;;;;;2.33;0.60;;;26.00;77.60;;;;;;5021924;28;20469;-83
2023/09/03 10:42:52;;;;;;;2.33;0.60;;;26.40;74.30;;;;;;5020464;28;20389;-83
2023/09/03 10:45:18;;;;;;;4.82;0.80;;;26.70;73.90;;;;;;5021674;28;20032;-84
2023/09/03 10:47:56;;;;;;;1.80;0.63;;;27.10;73.00;;;;;;5032356;28;20022;-83
2023/09/03 10:50:41;;;;;;;1.95;0.60;;;27.40;70.40;;;;;;5020607;28;20036;-83
2023/09/03 10:53:07;;;;;;;1.08;0.60;;;27.60;68.40;;;;;;5023361;28;20048;-83
2023/09/03 10:55:33;;;;;;;1.83;0.57;;;27.90;68.90;;;;;;5025425;28;20093;-84
2023/09/03 10:58:10;;;;;;;1.55;0.70;;;28.30;68.00;;;;;;5024564;28;20084;-83
2023/09/03 11:00:37;;;;;;;1.88;0.65;;;28.70;66.00;;;;;;5023677;28;20423;-84
2023/09/03 11:03:23;;;;;;;0.80;0.40;;;29.00;65.90;;;;;;5020466;28;20084;-84
2023/09/03 11:06:16;;;;;;;1.65;0.70;;;29.40;63.60;;;;;;5028241;28;20033;-84
2023/09/03 11:08:41;;;;;;;1.02;0.55;;;29.70;61.70;;;;;;5031838;28;20025;-84
2023/09/03 11:11:10;;;;;;;1.98;0.52;;;29.90;62.40;;;;;;5031912;28;20022;-85
2023/09/03 11:13:36;;;;;;;1.08;0.52;;;30.10;61.20;;;;;;5031842;28;20489;-85
2023/09/03 11:16:01;;;;;;;2.53;0.60;;;30.20;59.80;;;;;;5032355;28;20112;-84
2023/09/03 11:18:27;;;;;;;1.42;0.60;;;30.30;58.90;;;;;;5030872;28;20150;-84
2023/09/03 11:20:56;;;;;;;1.10;0.60;;;30.40;58.50;;;;;;5020165;28;20105;-84
2023/09/03 11:23:22;;;;;;;1.65;0.70;;;30.50;58.00;;;;;;5021136;28;20037;-85
2023/09/03 11:25:47;;;;;;;1.77;0.70;;;30.60;57.30;;;;;;5012562;28;20109;-85
2023/09/03 11:28:14;;;;;;;1.92;0.60;;;30.60;56.40;;;;;;5011857;28;20108;-85
2023/09/03 11:30:45;;;;;;;2.38;0.57;;;30.70;55.60;;;;;;5011759;28;20025;-83
2023/09/03 11:33:26;;;;;;;1.42;0.40;;;30.90;55.40;;;;;;5011367;28;20072;-80
2023/09/03 11:35:55;;;;;;;2.75;0.57;;;31.10;54.60;;;;;;5011401;28;20026;-80
2023/09/03 11:38:29;;;;;;;2.35;0.60;;;31.10;54.50;;;;;;5015756;28;20026;-80
2023/09/03 11:40:56;;;;;;;1.88;0.50;;;31.00;53.70;;;;;;5022734;28;20053;-80
2023/09/03 11:43:23;;;;;;;1.08;0.40;;;30.80;53.40;;;;;;5032838;28;20029;-80
2023/09/03 11:45:49;;;;;;;0.60;0.40;;;30.80;53.10;;;;;;5034520;28;20477;-81
2023/09/03 11:48:15;;;;;;;1.98;0.52;;;30.60;52.80;;;;;;5035501;28;20028;-80
2023/09/03 11:50:40;;;;;;;1.95;0.50;;;30.60;52.80;;;;;;5035852;28;20097;-80
2023/09/03 11:53:08;;;;;;;1.00;0.40;;;30.50;52.50;;;;;;5035790;28;20053;-80
2023/09/03 11:55:44;;;;;;;1.23;0.50;;;30.50;52.20;;;;;;5035202;28;20113;-80
2023/09/03 11:58:13;;;;;;;1.88;0.50;;;30.60;51.70;;;;;;5035930;28;20033;-80
2023/09/03 12:00:39;;;;;;;1.27;0.60;;;30.60;51.60;;;;;;5034195;28;20493;-80
2023/09/03 12:03:05;;;;;;;1.63;0.40;;;30.70;51.50;;;;;;5036387;28;20064;-80
2023/09/03 12:05:33;;;;;;;1.35;0.43;;;30.60;51.20;;;;;;5037574;28;20553;-80
2023/09/03 12:08:03;;;;;;;1.10;0.40;;;30.70;51.00;;;;;;5035440;28;20036;-81
2023/09/03 12:10:30;;;;;;;1.45;0.45;;;30.70;50.90;;;;;;5034876;28;20025;-80
2023/09/03 12:12:55;;;;;;;3.33;0.50;;;30.70;50.70;;;;;;5035415;28;20033;-80
2023/09/03 12:15:23;;;;;;;0.98;0.47;;;30.70;50.50;;;;;;5034913;28;20026;-80
2023/09/03 12:17:49;;;;;;;1.23;0.60;;;30.70;50.50;;;;;;5035062;28;20065;-80
2023/09/03 12:20:36;;;;;;;0.98;0.38;;;30.60;50.40;;;;;;5035153;28;20384;-80
2023/09/03 12:23:20;;;;;;;0.80;0.43;;;30.50;50.10;;;;;;5034158;28;20049;-80
2023/09/03 12:25:46;;;;;;;0.95;0.30;;;30.40;50.20;;;;;;5034778;28;20396;-80
2023/09/03 12:28:12;;;;;;;0.90;0.32;;;30.30;50.20;;;;;;5034232;28;20506;-80
2023/09/03 12:30:57;;;;;;;1.30;0.50;;;30.30;49.90;;;;;;5034202;28;20036;-80
2023/09/03 12:33:42;;;;;;;1.20;0.52;;;30.20;49.50;;;;;;5034846;28;20408;-80
2023/09/03 12:36:15;;;;;;;0.85;0.40;;;30.10;49.30;;;;;;5033628;28;20025;-80
2023/09/03 12:38:48;;;;;;;1.00;0.40;;;30.00;49.20;;;;;;5034652;28;20569;-81
2023/09/03 12:41:13;;;;;;;1.50;0.60;;;30.10;49.10;;;;;;5034511;28;20396;-80
2023/09/03 12:43:41;;;;;;;1.25;0.40;;;30.00;49.20;;;;;;5023254;28;20030;-80
2023/09/03 12:46:06;;;;;;;1.30;0.40;;;30.00;49.40;;;;;;5024228;28;20087;-80
2023/09/03 12:48:32;;;;;;;0.65;0.32;;;30.00;49.30;;;;;;5030391;28;20112;-81